createdAt,value
2023-05-22T00:01:06.658Z,101551.31
2023-05-22T00:03:33.729Z,101550.94
2023-05-22T00:06:00.356Z,101541.16
2023-05-22T00:08:29.543Z,101537.56
2023-05-22T00:10:56.808Z,101525.31
2023-05-22T00:13:23.386Z,101521.72
2023-05-22T00:15:50.106Z,101524.59
2023-05-22T00:18:16.820Z,101529.19
2023-05-22T00:20:46.352Z,101522.38
2023-05-22T00:23:15.597Z,101525.88
2023-05-22T00:25:42.401Z,101515.19
2023-05-22T00:28:08.963Z,101509.66
2023-05-22T00:30:37.158Z,101515.56
2023-05-22T00:33:03.977Z,101508.94
2023-05-22T00:35:31.013Z,101511.34
2023-05-22T00:37:57.633Z,101501.91
2023-05-22T00:40:24.204Z,101505.03
2023-05-22T00:42:50.679Z,101505.16
2023-05-22T00:45:17.363Z,101507.50
2023-05-22T00:47:43.971Z,101503.56
2023-05-22T00:50:11.751Z,101511.34
2023-05-22T00:52:41.232Z,101504.34
2023-05-22T00:55:09.055Z,101499.66
2023-05-22T00:57:38.233Z,101494.56
2023-05-22T01:00:06.252Z,101492.53
2023-05-22T01:02:33.212Z,101488.56
2023-05-22T01:05:00.017Z,101491.72
2023-05-22T01:07:26.546Z,101498.75
2023-05-22T01:09:53.038Z,101495.94
2023-05-22T01:12:43.231Z,101492.75
2023-05-22T01:15:41.227Z,101502.03
2023-05-22T01:18:19.684Z,101509.88
2023-05-22T01:21:06.323Z,101511.19
2023-05-22T01:24:00.880Z,101509.22
2023-05-22T01:26:36.222Z,101507.41
2023-05-22T01:29:14.377Z,101520.72
2023-05-22T01:31:43.015Z,101510.22
2023-05-22T01:34:11.676Z,101514.78
2023-05-22T01:36:39.066Z,101513.91
2023-05-22T01:39:06.764Z,101519.88
2023-05-22T01:41:34.727Z,101522.00
2023-05-22T01:44:02.258Z,101518.88
2023-05-22T01:46:30.223Z,101512.19
2023-05-22T01:48:57.524Z,101499.59
2023-05-22T01:51:46.848Z,101499.25
2023-05-22T01:54:44.028Z,101501.63
2023-05-22T01:57:22.135Z,101484.44
2023-05-22T01:59:59.551Z,101487.66
2023-05-22T02:02:27.870Z,101486.50
2023-05-22T02:05:00.681Z,101478.56
2023-05-22T02:07:28.825Z,101478.53
2023-05-22T02:09:56.831Z,101468.75
2023-05-22T02:12:24.529Z,101457.41
2023-05-22T02:14:52.245Z,101455.06
2023-05-22T02:17:18.918Z,101466.38
2023-05-22T02:19:45.521Z,101468.31
2023-05-22T02:22:15.197Z,101475.28
2023-05-22T02:24:50.941Z,101470.09
2023-05-22T02:27:17.474Z,101469.00
2023-05-22T02:29:43.994Z,101466.97
2023-05-22T02:32:10.730Z,101461.75
2023-05-22T02:34:37.982Z,101463.69
2023-05-22T02:37:04.841Z,101463.31
2023-05-22T02:39:31.359Z,101463.81
2023-05-22T02:41:57.870Z,101462.94
2023-05-22T02:44:24.366Z,101459.75
2023-05-22T02:46:50.938Z,101454.53
2023-05-22T02:49:17.467Z,101468.91
2023-05-22T02:51:47.520Z,101459.09
2023-05-22T02:54:15.810Z,101459.03
2023-05-22T02:56:43.267Z,101452.78
2023-05-22T02:59:10.071Z,101455.47
2023-05-22T03:01:36.780Z,101453.41
2023-05-22T03:04:03.381Z,101456.09
2023-05-22T03:06:30.542Z,101453.34
2023-05-22T03:08:57.067Z,101449.13
2023-05-22T03:11:23.630Z,101451.88
2023-05-22T03:13:50.132Z,101448.47
2023-05-22T03:16:16.768Z,101446.59
2023-05-22T03:18:43.299Z,101446.09
2023-05-22T03:21:10.008Z,101452.34
2023-05-22T03:23:36.501Z,101450.81
2023-05-22T03:26:03.060Z,101442.16
2023-05-22T03:28:29.578Z,101448.28
2023-05-22T03:30:56.099Z,101447.22
2023-05-22T03:33:22.709Z,101435.94
2023-05-22T03:35:50.102Z,101443.34
2023-05-22T03:38:16.603Z,101446.84
2023-05-22T03:40:43.067Z,101437.41
2023-05-22T03:43:09.547Z,101443.19
2023-05-22T03:45:36.130Z,101439.91
2023-05-22T03:48:02.802Z,101448.91
2023-05-22T03:50:29.354Z,101453.09
2023-05-22T03:52:55.882Z,101452.31
2023-05-22T03:55:22.364Z,101451.56
2023-05-22T03:57:48.828Z,101459.38
2023-05-22T04:00:17.098Z,101458.09
2023-05-22T04:02:44.993Z,101454.44
2023-05-22T04:05:12.038Z,101452.78
2023-05-22T04:07:38.646Z,101446.38
2023-05-22T04:10:06.383Z,101439.34
2023-05-22T04:12:33.007Z,101449.47
2023-05-22T04:14:59.659Z,101436.69
2023-05-22T04:17:32.192Z,101448.91
2023-05-22T04:19:59.756Z,101449.41
2023-05-22T04:22:30.898Z,101449.34
2023-05-22T04:24:57.619Z,101441.56
2023-05-22T04:27:24.867Z,101455.25
2023-05-22T04:29:51.369Z,101451.47
2023-05-22T04:32:21.671Z,101454.13
2023-05-22T04:34:51.048Z,101452.97
2023-05-22T04:37:20.694Z,101458.53
2023-05-22T04:39:47.404Z,101460.09
2023-05-22T04:42:14.462Z,101466.00
2023-05-22T04:44:41.898Z,101482.34
2023-05-22T04:47:14.314Z,101481.72
2023-05-22T04:49:42.445Z,101487.28
2023-05-22T04:52:11.571Z,101494.88
2023-05-22T04:54:43.309Z,101497.53
2023-05-22T04:57:09.996Z,101502.53
2023-05-22T04:59:40.176Z,101496.63
2023-05-22T05:02:07.124Z,101504.75
2023-05-22T05:04:33.964Z,101502.53
2023-05-22T05:07:00.561Z,101493.19
2023-05-22T05:09:27.070Z,101498.78
2023-05-22T05:11:55.003Z,101511.81
2023-05-22T05:14:21.578Z,101517.72
2023-05-22T05:16:48.143Z,101510.41
2023-05-22T05:19:15.573Z,101514.88
2023-05-22T05:21:42.176Z,101514.72
2023-05-22T05:24:08.785Z,101499.38
2023-05-22T05:26:35.340Z,101509.22
2023-05-22T05:29:01.859Z,101509.22
2023-05-22T05:31:28.718Z,101508.56
2023-05-22T05:33:58.152Z,101500.66
2023-05-22T05:36:25.186Z,101503.31
2023-05-22T05:38:51.759Z,101501.72
2023-05-22T05:41:19.134Z,101495.22
2023-05-22T05:43:45.826Z,101497.69
2023-05-22T05:46:13.189Z,101494.94
2023-05-22T05:48:39.844Z,101490.88
2023-05-22T05:51:06.715Z,101493.72
2023-05-22T05:53:33.250Z,101489.88
2023-05-22T05:55:59.841Z,101494.31
2023-05-22T05:58:26.328Z,101497.97
2023-05-22T06:00:52.902Z,101490.97
2023-05-22T06:03:19.523Z,101489.41
2023-05-22T06:05:46.231Z,101491.06
2023-05-22T06:08:13.614Z,101487.13
2023-05-22T06:10:40.422Z,101477.75
2023-05-22T06:13:07.264Z,101489.22
2023-05-22T06:15:34.319Z,101490.13
2023-05-22T06:18:02.463Z,101495.34
2023-05-22T06:20:29.118Z,101492.00
2023-05-22T06:22:56.048Z,101498.09
2023-05-22T06:25:23.777Z,101501.34
2023-05-22T06:27:50.292Z,101496.78
2023-05-22T06:30:31.993Z,101500.84
2023-05-22T06:33:06.140Z,101500.56
2023-05-22T06:35:32.696Z,101502.22
2023-05-22T06:37:59.323Z,101499.91
2023-05-22T06:40:25.948Z,101504.25
2023-05-22T06:42:52.997Z,101511.41
2023-05-22T06:45:20.041Z,101509.16
2023-05-22T06:47:46.852Z,101512.38
2023-05-22T06:50:13.428Z,101522.59
2023-05-22T06:52:39.926Z,101518.44
2023-05-22T06:55:07.379Z,101510.63
2023-05-22T06:57:34.665Z,101511.00
2023-05-22T07:00:01.293Z,101512.22
2023-05-22T07:02:27.867Z,101515.81
2023-05-22T07:04:54.490Z,101515.88
2023-05-22T07:07:21.233Z,101517.94
2023-05-22T07:09:47.901Z,101522.69
2023-05-22T07:12:14.586Z,101519.19
2023-05-22T07:14:41.133Z,101522.00
2023-05-22T07:17:08.001Z,101524.84
2023-05-22T07:19:35.756Z,101524.94
2023-05-22T07:22:02.393Z,101524.97
2023-05-22T07:24:29.053Z,101521.94
2023-05-22T07:26:55.655Z,101520.38
2023-05-22T07:29:23.183Z,101527.47
2023-05-22T07:31:50.149Z,101526.75
2023-05-22T07:34:16.804Z,101524.81
2023-05-22T07:36:43.393Z,101524.44
2023-05-22T07:39:09.905Z,101533.94
2023-05-22T07:41:36.717Z,101529.63
2023-05-22T07:44:03.403Z,101533.97
2023-05-22T07:46:29.996Z,101527.69
2023-05-22T07:48:56.827Z,101525.78
2023-05-22T07:51:23.336Z,101522.66
2023-05-22T07:53:49.852Z,101523.13
2023-05-22T07:56:17.612Z,101526.28
2023-05-22T07:58:44.358Z,101525.53
2023-05-22T08:01:11.145Z,101530.63
2023-05-22T08:03:37.907Z,101531.41
2023-05-22T08:06:04.824Z,101523.56
2023-05-22T08:08:32.183Z,101530.66
2023-05-22T08:13:28.195Z,101546.03
2023-05-22T08:16:00.149Z,101543.25
2023-05-22T08:18:29.168Z,101551.13
2023-05-22T08:20:56.257Z,101543.63
2023-05-22T08:23:22.994Z,101548.75
2023-05-22T08:25:50.290Z,101545.22
2023-05-22T08:28:16.856Z,101543.28
2023-05-22T08:30:43.462Z,101546.00
2023-05-22T08:33:10.074Z,101551.13
2023-05-22T08:35:36.760Z,101538.50
2023-05-22T08:38:03.318Z,101543.19
2023-05-22T08:40:36.771Z,101535.25
2023-05-22T08:43:06.156Z,101537.63
2023-05-22T08:45:36.974Z,101531.75
2023-05-22T08:48:05.912Z,101528.97
2023-05-22T08:50:34.702Z,101527.78
2023-05-22T08:53:04.770Z,101519.91
2023-05-22T08:55:31.402Z,101523.50
2023-05-22T08:57:59.561Z,101537.31
2023-05-22T09:00:26.184Z,101530.97
2023-05-22T09:02:53.479Z,101527.38
2023-05-22T09:05:20.197Z,101524.97
2023-05-22T09:07:48.817Z,101520.53
2023-05-22T09:10:15.390Z,101516.81
2023-05-22T09:13:00.822Z,101515.81
2023-05-22T09:15:30.554Z,101523.50
2023-05-22T09:17:57.189Z,101521.34
2023-05-22T09:20:23.827Z,101514.63
2023-05-22T09:22:50.380Z,101509.03
2023-05-22T09:25:21.337Z,101508.41
2023-05-22T09:27:48.833Z,101508.34
2023-05-22T09:30:19.075Z,101514.78
2023-05-22T09:32:48.375Z,101515.41
2023-05-22T09:35:15.241Z,101510.59
2023-05-22T09:37:42.059Z,101509.38
2023-05-22T09:40:12.061Z,101510.72
2023-05-22T09:42:38.590Z,101506.84
2023-05-22T09:45:07.159Z,101505.78
2023-05-22T09:47:34.889Z,101503.41
2023-05-22T09:50:04.559Z,101504.50
2023-05-22T09:52:35.753Z,101504.25
2023-05-22T09:55:04.780Z,101496.81
2023-05-22T09:57:42.856Z,101503.47
2023-05-22T10:00:13.331Z,101496.13
2023-05-22T10:02:44.562Z,101495.03
2023-05-22T10:05:12.145Z,101497.44
2023-05-22T10:08:04.881Z,101491.56
2023-05-22T10:10:33.065Z,101498.94
2023-05-22T10:13:06.501Z,101491.19
2023-05-22T10:15:33.139Z,101483.06
2023-05-22T10:18:00.717Z,101491.34
2023-05-22T10:20:29.714Z,101494.22
2023-05-22T10:22:56.941Z,101485.19
2023-05-22T10:25:23.636Z,101484.63
2023-05-22T10:27:53.619Z,101489.72
2023-05-22T10:30:40.862Z,101486.25
2023-05-22T10:33:19.040Z,101487.44
2023-05-22T10:36:08.675Z,101476.91
2023-05-22T10:39:04.989Z,101482.75
2023-05-22T10:41:31.938Z,101482.56
2023-05-22T10:43:58.536Z,101480.78
2023-05-22T10:46:25.552Z,101484.00
2023-05-22T10:48:55.082Z,101476.22
2023-05-22T10:51:23.116Z,101476.22
2023-05-22T10:53:57.936Z,101476.22
2023-05-22T10:56:32.146Z,101476.56
2023-05-22T10:59:05.321Z,101477.59
2023-05-22T11:01:37.487Z,101479.16
2023-05-22T11:04:04.113Z,101475.56
2023-05-22T11:06:34.052Z,101480.59
2023-05-22T11:09:16.309Z,101476.81
2023-05-22T11:11:42.877Z,101472.63
2023-05-22T11:14:11.887Z,101478.19
2023-05-22T11:16:39.788Z,101481.09
2023-05-22T11:19:22.145Z,101469.22
2023-05-22T11:21:49.656Z,101485.31
2023-05-22T11:24:18.091Z,101476.34
2023-05-22T11:26:52.484Z,101474.38
2023-05-22T11:29:19.029Z,101470.34
2023-05-22T11:31:46.348Z,101473.91
2023-05-22T11:34:13.026Z,101474.31
2023-05-22T11:36:40.316Z,101480.28
2023-05-22T11:39:07.261Z,101468.59
2023-05-22T11:41:34.346Z,101474.25
2023-05-22T11:44:01.603Z,101464.91
2023-05-22T11:46:30.334Z,101462.34
2023-05-22T11:48:57.077Z,101461.25
2023-05-22T11:51:23.740Z,101459.47
2023-05-22T11:53:50.387Z,101460.75
2023-05-22T11:56:21.568Z,101460.19
2023-05-22T11:58:51.882Z,101456.75
2023-05-22T12:01:18.469Z,101453.50
2023-05-22T12:03:45.108Z,101458.06
2023-05-22T12:06:11.991Z,101456.84
2023-05-22T12:08:39.292Z,101462.53
2023-05-22T12:11:07.122Z,101457.59
2023-05-22T12:13:33.635Z,101459.84
2023-05-22T12:16:00.980Z,101458.47
2023-05-22T12:18:35.374Z,101449.72
2023-05-22T12:21:01.948Z,101453.75
2023-05-22T12:23:30.058Z,101452.22
2023-05-22T12:26:09.013Z,101454.44
2023-05-22T12:28:35.640Z,101443.81
2023-05-22T12:31:02.139Z,101447.41
2023-05-22T12:33:29.936Z,101452.00
2023-05-22T12:35:58.596Z,101459.72
2023-05-22T12:38:31.701Z,101454.53
2023-05-22T12:41:00.199Z,101447.72
2023-05-22T12:43:27.246Z,101436.88
2023-05-22T12:45:54.100Z,101443.41
2023-05-22T12:48:20.690Z,101440.34
2023-05-22T12:50:47.341Z,101439.59
2023-05-22T12:53:14.000Z,101436.09
2023-05-22T12:55:40.980Z,101434.84
2023-05-22T12:58:07.648Z,101440.56
2023-05-22T13:00:34.744Z,101438.16
2023-05-22T13:03:01.520Z,101434.84
2023-05-22T13:05:28.181Z,101437.31
2023-05-22T13:07:54.683Z,101432.53
2023-05-22T13:10:21.262Z,101434.91
2023-05-22T13:12:51.027Z,101430.09
2023-05-22T13:15:20.713Z,101431.38
2023-05-22T13:17:47.296Z,101437.50
2023-05-22T13:20:13.972Z,101431.94
2023-05-22T13:22:44.640Z,101428.41
2023-05-22T13:25:13.297Z,101425.31
2023-05-22T13:27:39.843Z,101425.84
2023-05-22T13:30:06.973Z,101429.63
2023-05-22T13:32:34.173Z,101433.59
2023-05-22T13:35:00.797Z,101443.25
2023-05-22T13:37:27.426Z,101438.91
2023-05-22T13:39:54.062Z,101439.47
2023-05-22T13:42:20.771Z,101440.91
2023-05-22T13:44:47.271Z,101447.16
2023-05-22T13:47:13.982Z,101442.53
2023-05-22T13:49:43.827Z,101448.09
2023-05-22T13:52:10.458Z,101456.81
2023-05-22T13:54:37.058Z,101459.69
2023-05-22T13:57:03.721Z,101466.06
2023-05-22T13:59:30.330Z,101465.81
2023-05-22T14:01:56.951Z,101475.41
2023-05-22T14:04:23.762Z,101481.66
2023-05-22T14:06:50.707Z,101485.59
2023-05-22T14:09:17.868Z,101480.88
2023-05-22T14:11:44.569Z,101482.44
2023-05-22T14:14:11.420Z,101491.53
2023-05-22T14:16:38.366Z,101489.56
2023-05-22T14:19:05.090Z,101492.94
2023-05-22T14:21:31.649Z,101485.91
2023-05-22T14:23:58.226Z,101495.06
2023-05-22T14:26:24.792Z,101496.19
2023-05-22T14:28:51.448Z,101492.66
2023-05-22T14:31:17.968Z,101487.38
2023-05-22T14:33:44.474Z,101492.47
2023-05-22T14:36:11.027Z,101490.25
2023-05-22T14:38:37.950Z,101492.13
2023-05-22T14:41:04.500Z,101489.13
2023-05-22T14:43:31.218Z,101497.34
2023-05-22T14:45:59.081Z,101488.59
2023-05-22T14:48:26.467Z,101501.25
2023-05-22T14:50:53.784Z,101501.72
2023-05-22T14:53:20.808Z,101493.00
2023-05-22T14:55:47.596Z,101498.47
2023-05-22T14:58:14.695Z,101501.50
2023-05-22T15:00:42.740Z,101503.13
2023-05-22T15:03:09.414Z,101504.88
2023-05-22T15:05:36.060Z,101509.63
2023-05-22T15:08:02.678Z,101517.63
2023-05-22T15:10:29.222Z,101518.53
2023-05-22T15:12:55.776Z,101520.09
2023-05-22T15:15:22.464Z,101513.09
2023-05-22T15:17:49.133Z,101524.16
2023-05-22T15:20:15.785Z,101526.19
2023-05-22T15:22:42.344Z,101531.06
2023-05-22T15:25:15.282Z,101523.13
2023-05-22T15:27:42.734Z,101529.56
2023-05-22T15:30:10.006Z,101539.03
2023-05-22T15:32:37.606Z,101543.13
2023-05-22T15:37:33.723Z,101549.03
2023-05-22T15:40:01.828Z,101558.22
2023-05-22T15:42:28.822Z,101559.91
2023-05-22T15:44:55.528Z,101556.34
2023-05-22T15:47:22.251Z,101541.25
2023-05-22T15:49:48.783Z,101539.25
2023-05-22T15:52:15.641Z,101551.94
2023-05-22T15:54:42.230Z,101546.56
2023-05-22T15:57:08.740Z,101554.84
2023-05-22T15:59:35.262Z,101554.78
2023-05-22T16:02:01.869Z,101556.06
2023-05-22T16:04:28.407Z,101546.63
2023-05-22T16:06:55.005Z,101565.50
2023-05-22T16:09:21.546Z,101566.28
2023-05-22T16:11:48.130Z,101571.88
2023-05-22T16:14:14.678Z,101562.13
2023-05-22T16:16:41.343Z,101564.59
2023-05-22T16:19:08.079Z,101559.53
2023-05-22T16:21:34.616Z,101561.16
2023-05-22T16:24:01.216Z,101569.81
2023-05-22T16:26:27.740Z,101559.91
2023-05-22T16:28:54.320Z,101572.94
2023-05-22T16:31:20.910Z,101559.69
2023-05-22T16:33:47.548Z,101563.72
2023-05-22T16:36:14.108Z,101559.56
2023-05-22T16:38:40.638Z,101558.53
2023-05-22T16:41:07.136Z,101569.22
2023-05-22T16:43:33.651Z,101570.94
2023-05-22T16:46:00.188Z,101568.47
2023-05-22T16:48:26.828Z,101573.22
2023-05-22T16:50:53.544Z,101573.22
2023-05-22T16:53:20.092Z,101575.41
2023-05-22T16:55:46.691Z,101578.38
2023-05-22T16:58:14.008Z,101583.88
2023-05-22T17:00:41.284Z,101588.63
2023-05-22T17:03:08.497Z,101583.03
2023-05-22T17:05:36.532Z,101585.53
2023-05-22T17:08:03.320Z,101586.38
2023-05-22T17:10:29.875Z,101588.50
2023-05-22T17:12:56.577Z,101586.94
2023-05-22T17:15:23.498Z,101595.50
2023-05-22T17:17:50.687Z,101590.72
2023-05-22T17:20:17.413Z,101598.72
2023-05-22T17:22:43.978Z,101599.09
2023-05-22T17:25:10.835Z,101604.41
2023-05-22T17:27:37.327Z,101608.78
2023-05-22T17:30:05.582Z,101615.13
2023-05-22T17:32:32.375Z,101615.53
2023-05-22T17:34:59.348Z,101613.97
2023-05-22T17:37:25.888Z,101617.28
2023-05-22T17:39:52.370Z,101614.22
2023-05-22T17:42:18.962Z,101624.94
2023-05-22T17:44:45.795Z,101628.50
2023-05-22T17:47:13.406Z,101619.84
2023-05-22T17:49:40.173Z,101615.53
2023-05-22T17:52:08.571Z,101624.63
2023-05-22T17:54:35.901Z,101629.72
2023-05-22T17:57:04.102Z,101631.34
2023-05-22T17:59:31.924Z,101635.31
2023-05-22T18:01:58.550Z,101625.88
2023-05-22T18:04:25.286Z,101640.06
2023-05-22T18:06:52.209Z,101638.50
2023-05-22T18:09:18.790Z,101644.41
2023-05-22T18:11:45.346Z,101645.63
2023-05-22T18:14:12.040Z,101640.88
2023-05-22T18:16:38.646Z,101647.63
2023-05-22T18:19:05.236Z,101649.19
2023-05-22T18:21:32.254Z,101656.25
2023-05-22T18:23:59.028Z,101655.88
2023-05-22T18:26:26.754Z,101648.78
2023-05-22T18:28:53.334Z,101658.63
2023-05-22T18:31:20.128Z,101666.53
2023-05-22T18:33:46.800Z,101654.31
2023-05-22T18:36:13.351Z,101658.22
2023-05-22T18:38:39.995Z,101657.47
2023-05-22T18:41:06.764Z,101653.50
2023-05-22T18:43:33.754Z,101658.56
2023-05-22T18:46:00.317Z,101666.84
2023-05-22T18:48:28.154Z,101663.69
2023-05-22T18:50:57.292Z,101669.94
2023-05-22T18:53:25.355Z,101676.22
2023-05-22T18:55:53.725Z,101669.16
2023-05-22T18:58:20.576Z,101666.78
2023-05-22T19:00:47.232Z,101669.13
2023-05-22T19:03:13.982Z,101675.44
2023-05-22T19:05:40.728Z,101672.63
2023-05-22T19:08:07.314Z,101670.69
2023-05-22T19:10:34.032Z,101679.34
2023-05-22T19:13:00.582Z,101671.44
2023-05-22T19:15:27.173Z,101679.31
2023-05-22T19:17:53.693Z,101689.94
2023-05-22T19:20:20.475Z,101680.88
2023-05-22T19:22:47.077Z,101691.88
2023-05-22T19:25:13.723Z,101688.31
2023-05-22T19:27:40.401Z,101696.19
2023-05-22T19:30:07.431Z,101689.06
2023-05-22T19:32:34.102Z,101692.56
2023-05-22T19:35:00.621Z,101705.13
2023-05-22T19:37:27.180Z,101705.03
2023-05-22T19:39:54.292Z,101710.09
2023-05-22T19:42:20.836Z,101713.56
2023-05-22T19:44:47.419Z,101719.06
2023-05-22T19:47:13.983Z,101729.22
2023-05-22T19:49:40.505Z,101725.28
2023-05-22T19:52:07.065Z,101732.34
2023-05-22T19:54:35.763Z,101742.16
2023-05-22T19:57:02.974Z,101750.28
2023-05-22T19:59:29.511Z,101758.91
2023-05-22T20:01:56.187Z,101758.13
2023-05-22T20:04:23.198Z,101765.44
2023-05-22T20:06:49.785Z,101769.66
2023-05-22T20:09:16.740Z,101764.59
2023-05-22T20:11:43.297Z,101761.81
2023-05-22T20:14:09.864Z,101767.63
2023-05-22T20:16:36.512Z,101773.06
2023-05-22T20:19:04.103Z,101778.41
2023-05-22T20:21:31.054Z,101782.41
2023-05-22T20:23:57.766Z,101783.09
2023-05-22T20:26:24.323Z,101781.03
2023-05-22T20:28:50.928Z,101790.84
2023-05-22T20:31:17.872Z,101795.00
2023-05-22T20:33:44.460Z,101797.03
2023-05-22T20:36:12.012Z,101801.88
2023-05-22T20:38:38.518Z,101802.59
2023-05-22T20:41:08.663Z,101809.16
2023-05-22T20:43:36.230Z,101800.78
2023-05-22T20:46:03.115Z,101808.66
2023-05-22T20:48:29.717Z,101809.84
2023-05-22T20:50:56.463Z,101808.03
2023-05-22T20:53:24.458Z,101818.81
2023-05-22T20:55:53.180Z,101821.66
2023-05-22T20:58:19.982Z,101827.53
2023-05-22T21:00:49.333Z,101820.84
2023-05-22T21:03:16.980Z,101828.16
2023-05-22T21:05:43.495Z,101834.06
2023-05-22T21:08:10.054Z,101844.16
2023-05-22T21:10:36.545Z,101856.13
2023-05-22T21:13:03.075Z,101849.81
2023-05-22T21:15:29.542Z,101867.19
2023-05-22T21:17:56.097Z,101860.50
2023-05-22T21:20:22.651Z,101867.28
2023-05-22T21:22:49.210Z,101858.78
2023-05-22T21:25:15.787Z,101860.00
2023-05-22T21:27:42.357Z,101870.91
2023-05-22T21:30:11.970Z,101858.53
2023-05-22T21:32:38.680Z,101864.59
2023-05-22T21:35:06.011Z,101852.34
2023-05-22T21:37:32.559Z,101857.53
2023-05-22T21:39:59.087Z,101861.59
2023-05-22T21:42:26.209Z,101863.41
2023-05-22T21:44:52.901Z,101863.84
2023-05-22T21:47:19.518Z,101864.16
2023-05-22T21:49:46.031Z,101865.59
2023-05-22T21:52:12.811Z,101870.63
2023-05-22T21:54:39.601Z,101863.56
2023-05-22T21:57:06.369Z,101866.75
2023-05-22T21:59:32.940Z,101865.53
2023-05-22T22:01:59.573Z,101868.25
2023-05-22T22:04:26.240Z,101869.47
2023-05-22T22:06:54.033Z,101858.88
2023-05-22T22:09:20.527Z,101855.22
2023-05-22T22:11:48.620Z,101861.75
2023-05-22T22:14:15.188Z,101866.44
2023-05-22T22:16:44.398Z,101867.88
2023-05-22T22:19:11.522Z,101871.59
2023-05-22T22:21:38.402Z,101862.47
2023-05-22T22:24:05.069Z,101860.38
2023-05-22T22:26:32.316Z,101868.31
2023-05-22T22:28:58.947Z,101873.25
2023-05-22T22:31:26.282Z,101867.28
2023-05-22T22:33:52.945Z,101870.66
2023-05-22T22:36:19.452Z,101859.69
2023-05-22T22:38:46.120Z,101857.31
2023-05-22T22:41:12.666Z,101870.56
2023-05-22T22:43:39.163Z,101861.13
2023-05-22T22:46:05.844Z,101863.94
2023-05-22T22:48:32.369Z,101873.09
2023-05-22T22:50:58.902Z,101879.81
2023-05-22T22:53:25.519Z,101865.44
2023-05-22T22:55:59.277Z,101876.69
2023-05-22T22:58:25.925Z,101870.06
2023-05-22T23:00:52.889Z,101875.88
2023-05-22T23:03:19.488Z,101884.41
2023-05-22T23:05:46.543Z,101888.41
2023-05-22T23:08:13.254Z,101883.63
2023-05-22T23:10:39.759Z,101881.53
2023-05-22T23:13:06.515Z,101894.69
2023-05-22T23:15:33.825Z,101899.00
2023-05-22T23:18:00.452Z,101897.59
2023-05-22T23:20:26.970Z,101897.06
2023-05-22T23:22:53.533Z,101902.66
2023-05-22T23:25:20.123Z,101899.69
2023-05-22T23:27:46.668Z,101902.78
2023-05-22T23:30:13.245Z,101899.63
2023-05-22T23:32:39.838Z,101903.78
2023-05-22T23:35:06.566Z,101902.53
2023-05-22T23:37:33.065Z,101904.28
2023-05-22T23:39:59.574Z,101895.97
2023-05-22T23:42:26.119Z,101897.13
2023-05-22T23:44:52.743Z,101902.06
2023-05-22T23:47:19.244Z,101899.25
2023-05-22T23:49:45.716Z,101899.25
2023-05-22T23:52:13.112Z,101904.91
2023-05-22T23:54:39.731Z,101905.88
2023-05-22T23:57:06.267Z,101917.94
2023-05-22T23:59:32.765Z,101916.72
